Time,TemperatureF,DewpointF,PressureIn,WindDirection,WindDirectionDegrees,WindSpeedMPH,WindSpeedGustMPH,Humidity,HourlyPrecipIn,Conditions,Clouds,dailyrainin,SoftwareType,DateUTC
2013-10-16 00:01:00,55.2,55.0,0.00,SSE,148,0.0,0.0,99,0.00,,---,0.00,VWS V13.01,2013-10-16 04:01:00,
2013-10-16 00:06:00,55.2,55.0,0.00,SSE,148,0.0,0.0,99,0.00,,---,0.00,VWS V13.01,2013-10-16 04:06:00,
2013-10-16 00:11:00,55.0,54.8,0.00,SSE,148,0.0,0.0,99,0.00,,---,0.00,VWS V13.01,2013-10-16 04:11:00,
2013-10-16 00:16:00,55.0,54.8,0.00,SSE,148,0.0,0.0,99,0.00,,---,0.00,VWS V13.01,2013-10-16 04:16:00,
2013-10-16 00:21:00,54.7,54.4,0.00,SSE,148,0.0,0.0,99,0.00,,---,0.00,VWS V13.01,2013-10-16 04:21:00,
2013-10-16 00:26:00,54.5,54.2,0.00,SSE,149,0.0,0.0,99,0.00,,---,0.00,VWS V13.01,2013-10-16 04:26:00,
2013-10-16 00:31:00,54.5,54.5,0.00,SSE,148,0.0,0.0,100,0.00,,---,0.00,VWS V13.01,2013-10-16 04:31:00,
2013-10-16 00:36:00,54.3,54.3,0.00,SSE,148,0.0,0.0,100,0.00,,---,0.00,VWS V13.01,2013-10-16 04:36:00,
2013-10-16 00:41:00,54.3,54.3,0.00,ESE,112,0.0,0.0,100,0.00,,---,0.00,VWS V13.01,2013-10-16 04:41:00,
2013-10-16 00:46:00,54.3,54.3,0.00,SSE,167,0.0,0.0,100,0.00,,---,0.00,VWS V13.01,2013-10-16 04:46:00,
2013-10-16 00:51:00,54.5,54.5,0.00,SE,124,8.7,10.5,100,0.00,,---,0.00,VWS V13.01,2013-10-16 04:51:00,
2013-10-16 00:56:00,55.4,55.4,0.00,SSE,147,0.0,5.6,100,0.00,,---,0.00,VWS V13.01,2013-10-16 04:56:00,
2013-10-16 01:01:00,56.3,56.3,0.00,North,357,0.0,10.5,100,0.00,,---,0.00,VWS V13.01,2013-10-16 05:01:00,
2013-10-16 01:06:00,56.3,56.0,0.00,SE,129,4.7,7.2,99,0.00,,---,0.00,VWS V13.01,2013-10-16 05:06:00,
2013-10-16 01:11:00,56.8,56.3,0.00,SSE,159,0.0,8.9,98,0.00,,---,0.00,VWS V13.01,2013-10-16 05:11:00,
2013-10-16 01:16:00,57.6,56.4,0.00,SSE,158,4.0,9.7,96,0.00,,---,0.00,VWS V13.01,2013-10-16 05:16:00,
2013-10-16 01:21:00,57.7,56.0,0.00,East,84,0.0,0.0,94,0.00,,---,0.00,VWS V13.01,2013-10-16 05:21:00,
2013-10-16 01:26:00,58.5,56.5,0.00,SSE,167,4.0,7.2,93,0.00,,---,0.00,VWS V13.01,2013-10-16 05:26:00,
2013-10-16 01:31:00,58.8,56.2,0.00,SSE,166,0.0,0.0,91,0.00,,---,0.00,VWS V13.01,2013-10-16 05:31:00,
2013-10-16 01:36:00,59.2,56.0,0.00,SE,146,0.0,8.9,89,0.00,,---,0.00,VWS V13.01,2013-10-16 05:36:00,
2013-10-16 01:41:00,59.5,55.7,0.00,East,86,0.0,0.0,87,0.00,,---,0.00,VWS V13.01,2013-10-16 05:41:00,
2013-10-16 01:46:00,59.9,55.1,0.00,SE,141,0.0,5.6,84,0.00,,---,0.00,VWS V13.01,2013-10-16 05:46:00,
2013-10-16 01:51:00,59.5,54.4,0.00,SE,146,0.0,0.0,83,0.00,,---,0.00,VWS V13.01,2013-10-16 05:51:00,
2013-10-16 01:56:00,59.4,53.9,0.00,SE,142,0.0,0.0,82,0.00,,---,0.00,VWS V13.01,2013-10-16 05:56:00,
2013-10-16 02:01:00,59.4,53.5,0.00,WNW,285,0.0,0.0,81,0.00,,---,0.00,VWS V13.01,2013-10-16 06:01:00,
2013-10-16 02:06:00,59.5,53.4,0.00,SE,146,0.0,0.0,80,0.00,,---,0.00,VWS V13.01,2013-10-16 06:06:00,
2013-10-16 02:11:00,59.7,53.2,0.00,ESE,109,0.0,6.4,79,0.00,,---,0.00,VWS V13.01,2013-10-16 06:11:00,
2013-10-16 02:16:00,60.3,53.0,0.00,SSE,157,0.0,4.8,77,0.00,,---,0.00,VWS V13.01,2013-10-16 06:16:00,
2013-10-16 02:21:00,60.4,52.8,0.00,SSE,165,0.0,9.7,76,0.00,,---,0.00,VWS V13.01,2013-10-16 06:21:00,
2013-10-16 02:26:00,60.6,52.3,0.00,ESE,109,5.4,14.5,74,0.00,,---,0.00,VWS V13.01,2013-10-16 06:26:00,
2013-10-16 02:31:00,60.6,51.9,0.00,SE,145,4.7,13.7,73,0.00,,---,0.00,VWS V13.01,2013-10-16 06:31:00,
2013-10-16 02:36:00,60.6,51.6,0.00,SE,142,3.4,6.4,72,0.00,,---,0.00,VWS V13.01,2013-10-16 06:36:00,
2013-10-16 02:41:00,60.4,51.0,0.00,SW,217,0.0,13.7,71,0.00,,---,0.00,VWS V13.01,2013-10-16 06:41:00,
2013-10-16 02:46:00,60.4,50.6,0.00,SE,126,4.7,14.5,70,0.00,,---,0.00,VWS V13.01,2013-10-16 06:46:00,
2013-10-16 02:51:00,60.4,50.2,0.00,SW,224,4.0,10.5,69,0.00,,---,0.00,VWS V13.01,2013-10-16 06:51:00,
2013-10-16 02:56:00,60.6,50.4,0.00,SSE,162,3.4,10.5,69,0.00,,---,0.00,VWS V13.01,2013-10-16 06:56:00,
2013-10-16 03:01:00,60.8,49.8,0.00,SSE,159,5.4,13.7,67,0.00,,---,0.00,VWS V13.01,2013-10-16 07:01:00,
2013-10-16 03:06:00,61.0,49.5,0.00,South,175,0.0,8.9,66,0.00,,---,0.00,VWS V13.01,2013-10-16 07:06:00,
2013-10-16 03:15:00,61.0,49.2,0.00,SE,139,4.0,10.5,65,0.00,,---,0.00,VWS V13.01,2013-10-16 07:15:00,
2013-10-16 03:28:00,61.0,48.7,0.00,SSE,163,6.0,14.9,64,0.00,,---,0.00,VWS V13.01,2013-10-16 07:28:00,
2013-10-16 03:33:00,61.2,48.0,0.00,SE,146,0.0,11.3,62,0.00,,---,0.00,VWS V13.01,2013-10-16 07:33:00,
2013-10-16 03:38:00,61.0,47.5,0.00,SE,143,0.0,11.3,61,0.00,,---,0.00,VWS V13.01,2013-10-16 07:38:00,
2013-10-16 03:43:00,61.0,47.5,0.00,South,191,0.0,0.0,61,0.00,,---,0.00,VWS V13.01,2013-10-16 07:43:00,
2013-10-16 03:48:00,61.0,47.0,0.00,SE,135,6.0,7.2,60,0.00,,---,0.00,VWS V13.01,2013-10-16 07:48:00,
2013-10-16 03:53:00,60.8,46.8,0.00,ESE,107,9.4,11.3,60,0.00,,---,0.00,VWS V13.01,2013-10-16 07:53:00,
2013-10-16 03:58:00,61.0,46.6,0.00,SSW,212,4.7,13.7,59,0.00,,---,0.00,VWS V13.01,2013-10-16 07:58:00,
2013-10-16 04:03:00,61.0,46.1,0.00,WSW,244,0.0,4.8,58,0.00,,---,0.00,VWS V13.01,2013-10-16 08:03:00,
2013-10-16 04:08:00,61.0,45.7,0.00,South,180,7.4,8.9,57,0.00,,---,0.00,VWS V13.01,2013-10-16 08:08:00,
2013-10-16 04:13:00,61.2,45.8,0.00,SSE,152,4.0,18.1,57,0.00,,---,0.00,VWS V13.01,2013-10-16 08:13:00,
2013-10-16 04:18:00,61.3,45.5,0.00,SSW,212,4.0,14.5,56,0.00,,---,0.00,VWS V13.01,2013-10-16 08:18:00,
2013-10-16 04:23:00,61.2,45.4,0.00,SSE,148,0.0,13.7,56,0.00,,---,0.00,VWS V13.01,2013-10-16 08:23:00,
2013-10-16 04:28:00,61.0,44.7,0.00,South,178,7.4,9.7,55,0.00,,---,0.00,VWS V13.01,2013-10-16 08:28:00,
2013-10-16 04:33:00,61.2,44.9,0.00,SSE,167,6.0,9.7,55,0.00,,---,0.00,VWS V13.01,2013-10-16 08:33:00,
2013-10-16 04:38:00,61.2,44.4,0.00,SSE,148,6.0,12.1,54,0.00,,---,0.00,VWS V13.01,2013-10-16 08:38:00,
2013-10-16 04:43:00,61.0,44.2,0.00,SE,138,6.0,14.9,54,0.00,,---,0.00,VWS V13.01,2013-10-16 08:43:00,
2013-10-16 04:48:00,61.0,44.2,0.00,SSE,148,0.0,7.2,54,0.00,,---,0.00,VWS V13.01,2013-10-16 08:48:00,
2013-10-16 04:53:00,61.0,44.2,0.00,ESE,121,7.4,8.9,54,0.00,,---,0.00,VWS V13.01,2013-10-16 08:53:00,
2013-10-16 04:58:00,61.0,44.2,0.00,SSE,160,6.0,9.7,54,0.00,,---,0.00,VWS V13.01,2013-10-16 08:58:00,
2013-10-16 05:03:00,61.0,43.8,0.00,ESE,110,5.4,14.9,53,0.00,,---,0.00,VWS V13.01,2013-10-16 09:03:00,
2013-10-16 05:08:00,61.0,43.2,0.00,SSE,157,0.0,18.1,52,0.00,,---,0.00,VWS V13.01,2013-10-16 09:08:00,
2013-10-16 05:12:00,61.0,43.8,0.00,SSW,209,4.7,7.2,53,0.00,,---,0.00,VWS V13.01,2013-10-16 09:12:00,
2013-10-16 05:17:00,60.8,43.1,0.00,ESE,108,6.0,10.5,52,0.00,,---,0.00,VWS V13.01,2013-10-16 09:17:00,
2013-10-16 05:22:00,60.8,43.1,0.00,East,101,3.4,8.9,52,0.00,,---,0.00,VWS V13.01,2013-10-16 09:22:00,
2013-10-16 05:27:00,60.8,43.1,0.00,ESE,121,4.0,7.2,52,0.00,,---,0.00,VWS V13.01,2013-10-16 09:27:00,
2013-10-16 05:33:00,60.6,42.9,0.00,ESE,115,0.0,0.0,52,0.00,,---,0.00,VWS V13.01,2013-10-16 09:33:00,
2013-10-16 05:37:00,60.4,42.8,0.00,ESE,116,0.0,0.0,52,0.00,,---,0.00,VWS V13.01,2013-10-16 09:37:00,
2013-10-16 05:42:00,60.3,43.6,0.00,ESE,105,0.0,0.0,54,0.00,,---,0.00,VWS V13.01,2013-10-16 09:42:00,
2013-10-16 05:47:00,59.7,43.5,0.00,ESE,106,0.0,0.0,55,0.00,,---,0.00,VWS V13.01,2013-10-16 09:47:00,
2013-10-16 05:52:00,59.5,43.4,0.00,East,96,0.0,0.0,55,0.00,,---,0.00,VWS V13.01,2013-10-16 09:52:00,
2013-10-16 05:57:00,59.4,43.7,0.00,East,96,0.0,0.0,56,0.00,,---,0.00,VWS V13.01,2013-10-16 09:57:00,
2013-10-16 06:02:00,59.4,43.7,0.00,ESE,111,6.0,7.2,56,0.00,,---,0.00,VWS V13.01,2013-10-16 10:02:00,
2013-10-16 06:07:00,59.4,43.2,0.00,ENE,75,4.7,8.9,55,0.00,,---,0.00,VWS V13.01,2013-10-16 10:07:00,
2013-10-16 06:12:00,59.5,43.4,0.00,ESE,116,4.0,9.7,55,0.00,,---,0.00,VWS V13.01,2013-10-16 10:12:00,
2013-10-16 06:17:00,59.5,43.4,0.00,South,174,0.0,9.7,55,0.00,,---,0.00,VWS V13.01,2013-10-16 10:17:00,
2013-10-16 06:22:00,59.4,42.7,0.00,SE,141,6.0,10.5,54,0.00,,---,0.00,VWS V13.01,2013-10-16 10:22:00,
2013-10-16 06:27:00,59.4,42.7,0.00,SE,146,4.7,8.9,54,0.00,,---,0.00,VWS V13.01,2013-10-16 10:27:00,
2013-10-16 06:32:00,59.2,42.6,0.00,SSE,160,4.0,9.7,54,0.00,,---,0.00,VWS V13.01,2013-10-16 10:32:00,
2013-10-16 06:37:00,59.2,42.6,0.00,South,169,0.0,11.3,54,0.00,,---,0.00,VWS V13.01,2013-10-16 10:37:00,
2013-10-16 06:42:00,59.2,42.6,0.00,SE,135,4.0,11.3,54,0.00,,---,0.00,VWS V13.01,2013-10-16 10:42:00,
2013-10-16 06:47:00,59.2,42.6,0.00,SE,135,5.4,10.5,54,0.00,,---,0.00,VWS V13.01,2013-10-16 10:47:00,
2013-10-16 06:52:00,59.0,42.4,0.00,SSE,167,4.0,9.7,54,0.00,,---,0.00,VWS V13.01,2013-10-16 10:52:00,
2013-10-16 06:57:00,59.0,42.4,0.00,ESE,110,6.0,15.7,54,0.00,,---,0.00,VWS V13.01,2013-10-16 10:57:00,
2013-10-16 07:02:00,59.0,42.4,0.00,SSE,163,4.0,11.3,54,0.00,,---,0.00,VWS V13.01,2013-10-16 11:02:00,
2013-10-16 07:07:00,59.4,42.2,0.00,SE,141,8.1,9.7,53,0.00,,---,0.00,VWS V13.01,2013-10-16 11:07:00,
2013-10-16 07:12:00,59.2,42.1,0.00,SE,144,0.0,14.9,53,0.00,,---,0.00,VWS V13.01,2013-10-16 11:12:00,
2013-10-16 07:17:00,59.2,42.6,0.00,SSE,163,0.0,6.4,54,0.00,,---,0.00,VWS V13.01,2013-10-16 11:17:00,
2013-10-16 07:22:00,59.2,42.6,0.00,SSE,149,4.7,6.4,54,0.00,,---,0.00,VWS V13.01,2013-10-16 11:22:00,
2013-10-16 07:27:00,58.8,42.2,0.00,SSE,149,4.7,7.2,54,0.00,,---,0.00,VWS V13.01,2013-10-16 11:27:00,
2013-10-16 07:32:00,58.8,42.7,0.00,SSE,147,8.1,9.7,55,0.00,,---,0.00,VWS V13.01,2013-10-16 11:32:00,
2013-10-16 07:37:00,58.8,42.7,0.00,East,100,5.4,9.7,55,0.00,,---,0.00,VWS V13.01,2013-10-16 11:37:00,
2013-10-16 07:42:00,58.8,42.7,0.00,SSE,151,0.0,14.5,55,0.00,,---,0.00,VWS V13.01,2013-10-16 11:42:00,
2013-10-16 07:47:00,58.8,42.7,0.00,SSE,150,0.0,4.8,55,0.00,,---,0.00,VWS V13.01,2013-10-16 11:47:00,
2013-10-16 07:52:00,58.6,42.5,0.00,SE,146,6.0,9.7,55,0.00,,---,0.00,VWS V13.01,2013-10-16 11:52:00,
2013-10-16 07:57:00,58.6,42.5,0.00,SE,141,0.0,5.6,55,0.00,,---,0.00,VWS V13.01,2013-10-16 11:57:00,
2013-10-16 08:02:00,58.6,42.5,0.00,SSW,212,0.0,7.2,55,0.00,,---,0.00,VWS V13.01,2013-10-16 12:02:00,
2013-10-16 08:07:00,58.6,42.5,0.00,SSE,162,0.0,0.0,55,0.00,,---,0.00,VWS V13.01,2013-10-16 12:07:00,
2013-10-16 08:12:00,58.8,42.7,0.00,SSE,152,0.0,0.0,55,0.00,,---,0.00,VWS V13.01,2013-10-16 12:12:00,
2013-10-16 08:17:00,58.8,42.7,0.00,SSE,160,0.0,0.0,55,0.00,,---,0.00,VWS V13.01,2013-10-16 12:17:00,
2013-10-16 08:24:00,58.8,42.7,0.00,SSE,152,0.0,0.0,55,0.00,,---,0.00,VWS V13.01,2013-10-16 12:24:00,
2013-10-16 08:29:00,59.0,42.4,0.00,ESE,116,0.0,4.8,54,0.00,,---,0.00,VWS V13.01,2013-10-16 12:29:00,
2013-10-16 08:34:00,59.2,42.6,0.00,South,170,0.0,0.0,54,0.00,,---,0.00,VWS V13.01,2013-10-16 12:34:00,
2013-10-16 08:39:00,59.4,42.7,0.00,South,170,0.0,0.0,54,0.00,,---,0.00,VWS V13.01,2013-10-16 12:39:00,
2013-10-16 08:44:00,59.9,43.2,0.00,South,170,0.0,0.0,54,0.00,,---,0.00,VWS V13.01,2013-10-16 12:44:00,
2013-10-16 08:49:00,60.4,43.7,0.00,SSE,148,0.0,0.0,54,0.00,,---,0.00,VWS V13.01,2013-10-16 12:49:00,
2013-10-16 08:54:00,60.8,44.1,0.00,ESE,117,0.0,0.0,54,0.00,,---,0.00,VWS V13.01,2013-10-16 12:54:00,
2013-10-16 08:59:00,61.2,44.4,0.00,SE,136,0.0,0.0,54,0.00,,---,0.00,VWS V13.01,2013-10-16 12:59:00,
2013-10-16 09:04:00,61.3,44.1,0.00,ESE,117,4.0,4.8,53,0.00,,---,0.00,VWS V13.01,2013-10-16 13:04:00,
2013-10-16 09:09:00,61.5,44.2,0.00,SSE,159,0.0,0.0,53,0.00,,---,0.00,VWS V13.01,2013-10-16 13:09:00,
2013-10-16 09:14:00,61.5,43.8,0.00,SSE,155,0.0,0.0,52,0.00,,---,0.00,VWS V13.01,2013-10-16 13:14:00,
2013-10-16 09:19:00,61.5,43.8,0.00,South,175,0.0,4.8,52,0.00,,---,0.00,VWS V13.01,2013-10-16 13:19:00,
2013-10-16 09:24:00,61.3,43.1,0.00,SSE,157,0.0,5.6,51,0.00,,---,0.00,VWS V13.01,2013-10-16 13:24:00,
2013-10-16 09:29:00,61.3,43.1,0.00,SE,140,4.0,7.2,51,0.00,,---,0.00,VWS V13.01,2013-10-16 13:29:00,
2013-10-16 09:34:00,61.3,43.1,0.00,SSE,160,0.0,0.0,51,0.00,,---,0.00,VWS V13.01,2013-10-16 13:34:00,
2013-10-16 09:39:00,61.3,43.1,0.00,South,169,4.0,7.2,51,0.00,,---,0.00,VWS V13.01,2013-10-16 13:39:00,
2013-10-16 09:44:00,61.5,43.2,0.00,SSE,166,4.0,8.9,51,0.00,,---,0.00,VWS V13.01,2013-10-16 13:44:00,
2013-10-16 09:49:00,61.9,44.1,0.00,South,179,0.0,9.7,52,0.00,,---,0.00,VWS V13.01,2013-10-16 13:49:00,
2013-10-16 09:54:00,61.9,43.6,0.00,SE,128,0.0,0.0,51,0.00,,---,0.00,VWS V13.01,2013-10-16 13:54:00,
2013-10-16 09:59:00,62.1,43.7,0.00,SE,138,4.0,4.8,51,0.00,,---,0.00,VWS V13.01,2013-10-16 13:59:00,
2013-10-16 10:04:00,62.1,43.7,0.00,East,97,0.0,6.4,51,0.00,,---,0.00,VWS V13.01,2013-10-16 14:04:00,
2013-10-16 10:09:00,62.1,43.7,0.00,ESE,119,0.0,0.0,51,0.00,,---,0.00,VWS V13.01,2013-10-16 14:09:00,
2013-10-16 10:14:00,62.1,43.7,0.00,SSE,151,0.0,0.0,51,0.00,,---,0.00,VWS V13.01,2013-10-16 14:14:00,
2013-10-16 10:19:00,62.2,44.4,0.00,SSE,162,0.0,0.0,52,0.00,,---,0.00,VWS V13.01,2013-10-16 14:19:00,
2013-10-16 10:24:00,62.2,43.9,0.00,SE,142,0.0,0.0,51,0.00,,---,0.00,VWS V13.01,2013-10-16 14:24:00,
2013-10-16 10:29:00,62.4,44.6,0.00,ESE,121,0.0,0.0,52,0.00,,---,0.00,VWS V13.01,2013-10-16 14:29:00,
2013-10-16 10:34:00,62.6,44.2,0.00,SE,127,0.0,0.0,51,0.00,,---,0.00,VWS V13.01,2013-10-16 14:34:00,
2013-10-16 10:39:00,62.6,44.8,0.00,ESE,106,0.0,0.0,52,0.00,,---,0.00,VWS V13.01,2013-10-16 14:39:00,
2013-10-16 10:44:00,62.6,44.8,0.00,SE,142,4.0,4.8,52,0.00,,---,0.00,VWS V13.01,2013-10-16 14:44:00,
2013-10-16 10:49:00,62.8,44.9,0.00,SE,128,0.0,0.0,52,0.00,,---,0.00,VWS V13.01,2013-10-16 14:49:00,
2013-10-16 10:54:00,63.3,45.4,0.00,ESE,120,0.0,0.0,52,0.00,,---,0.00,VWS V13.01,2013-10-16 14:54:00,
2013-10-16 10:59:00,63.7,45.8,0.00,SSE,159,0.0,0.0,52,0.00,,---,0.00,VWS V13.01,2013-10-16 14:59:00,
2013-10-16 11:04:00,64.2,46.2,0.00,SSE,153,0.0,0.0,52,0.00,,---,0.00,VWS V13.01,2013-10-16 15:04:00,
2013-10-16 11:09:00,64.6,46.6,0.00,South,176,4.0,7.2,52,0.00,,---,0.00,VWS V13.01,2013-10-16 15:09:00,
2013-10-16 11:14:00,65.1,47.1,0.00,East,83,0.0,0.0,52,0.00,,---,0.00,VWS V13.01,2013-10-16 15:14:00,
2013-10-16 11:19:00,65.1,46.6,0.00,SSE,164,3.4,4.8,51,0.00,,---,0.00,VWS V13.01,2013-10-16 15:19:00,
2013-10-16 11:24:00,65.1,46.6,0.00,South,185,0.0,0.0,51,0.00,,---,0.00,VWS V13.01,2013-10-16 15:24:00,
2013-10-16 11:29:00,65.1,46.6,0.00,SE,133,0.0,0.0,51,0.00,,---,0.00,VWS V13.01,2013-10-16 15:29:00,
2013-10-16 11:34:00,64.8,46.2,0.00,South,175,12.1,14.5,51,0.00,,---,0.00,VWS V13.01,2013-10-16 15:34:00,
2013-10-16 11:39:00,64.9,46.4,0.00,SSE,168,0.0,0.0,51,0.00,,---,0.00,VWS V13.01,2013-10-16 15:39:00,
2013-10-16 11:44:00,64.6,46.6,0.00,WSW,238,0.0,0.0,52,0.00,,---,0.00,VWS V13.01,2013-10-16 15:44:00,
2013-10-16 11:49:00,64.4,46.9,0.00,SSE,160,0.0,0.0,53,0.00,,---,0.00,VWS V13.01,2013-10-16 15:49:00,
2013-10-16 11:54:00,64.8,46.7,0.00,SSE,158,8.1,9.7,52,0.00,,---,0.00,VWS V13.01,2013-10-16 15:54:00,
2013-10-16 11:59:00,64.9,47.4,0.00,South,186,0.0,0.0,53,0.00,,---,0.00,VWS V13.01,2013-10-16 15:59:00,
2013-10-16 12:04:00,64.8,46.7,0.00,SE,139,5.4,8.9,52,0.00,,---,0.00,VWS V13.01,2013-10-16 16:04:00,
2013-10-16 12:09:00,64.9,46.9,0.00,NW,304,0.0,0.0,52,0.00,,---,0.00,VWS V13.01,2013-10-16 16:09:00,
2013-10-16 12:14:00,65.3,47.2,0.00,SSE,156,0.0,4.8,52,0.00,,---,0.00,VWS V13.01,2013-10-16 16:14:00,
2013-10-16 12:19:00,65.3,47.2,0.00,SSW,196,0.0,6.4,52,0.00,,---,0.00,VWS V13.01,2013-10-16 16:19:00,
2013-10-16 12:24:00,64.9,46.9,0.00,SW,215,0.0,0.0,52,0.00,,---,0.00,VWS V13.01,2013-10-16 16:24:00,
2013-10-16 12:29:00,64.8,46.7,0.00,SE,130,8.7,10.5,52,0.00,,---,0.00,VWS V13.01,2013-10-16 16:29:00,
2013-10-16 12:34:00,64.8,46.7,0.00,WSW,249,6.0,9.7,52,0.00,,---,0.00,VWS V13.01,2013-10-16 16:34:00,
2013-10-16 12:39:00,64.9,46.9,0.00,SSE,162,7.4,12.1,52,0.00,,---,0.00,VWS V13.01,2013-10-16 16:39:00,
2013-10-16 12:44:00,65.5,47.4,0.00,SSE,160,0.0,0.0,52,0.00,,---,0.00,VWS V13.01,2013-10-16 16:44:00,
2013-10-16 12:49:00,66.0,47.9,0.00,ESE,111,0.0,10.5,52,0.00,,---,0.00,VWS V13.01,2013-10-16 16:49:00,
2013-10-16 12:54:00,66.6,47.9,0.00,SSE,160,0.0,6.4,51,0.00,,---,0.00,VWS V13.01,2013-10-16 16:54:00,
2013-10-16 12:59:00,67.6,49.4,0.00,SSE,162,5.4,6.4,52,0.00,,---,0.00,VWS V13.01,2013-10-16 16:59:00,
2013-10-16 13:04:00,68.0,48.2,0.00,WSW,240,3.4,15.7,49,0.00,,---,0.00,VWS V13.01,2013-10-16 17:04:00,
2013-10-16 13:09:00,68.2,48.3,0.00,SE,144,8.7,10.5,49,0.00,,---,0.00,VWS V13.01,2013-10-16 17:09:00,
2013-10-16 13:14:00,68.0,47.6,0.00,SE,140,6.0,7.2,48,0.00,,---,0.00,VWS V13.01,2013-10-16 17:14:00,
2013-10-16 13:19:00,67.8,47.4,0.00,SE,140,4.0,6.4,48,0.00,,---,0.00,VWS V13.01,2013-10-16 17:19:00,
2013-10-16 13:24:00,67.6,47.8,0.00,SW,229,0.0,4.8,49,0.00,,---,0.00,VWS V13.01,2013-10-16 17:24:00,
2013-10-16 13:29:00,67.5,47.1,0.00,North,353,8.1,9.7,48,0.00,,---,0.00,VWS V13.01,2013-10-16 17:29:00,
2013-10-16 13:34:00,67.6,47.3,0.00,SE,140,3.4,7.2,48,0.00,,---,0.00,VWS V13.01,2013-10-16 17:34:00,
2013-10-16 13:39:00,67.1,46.8,0.00,WSW,250,0.0,4.0,48,0.00,,---,0.00,VWS V13.01,2013-10-16 17:39:00,
2013-10-16 13:44:00,67.1,47.3,0.00,SE,143,0.0,4.8,49,0.00,,---,0.00,VWS V13.01,2013-10-16 17:44:00,
2013-10-16 13:49:00,66.7,47.0,0.00,SSW,195,0.0,0.0,49,0.00,,---,0.00,VWS V13.01,2013-10-16 17:49:00,
2013-10-16 13:54:00,66.7,47.0,0.00,SSW,202,0.0,0.0,49,0.00,,---,0.00,VWS V13.01,2013-10-16 17:54:00,
2013-10-16 13:59:00,66.4,46.7,0.00,SE,143,9.4,11.3,49,0.00,,---,0.00,VWS V13.01,2013-10-16 17:59:00,
2013-10-16 14:04:00,66.4,46.7,0.00,South,178,4.0,4.8,49,0.00,,---,0.00,VWS V13.01,2013-10-16 18:04:00,
2013-10-16 14:09:00,66.4,47.2,0.00,SSE,155,0.0,0.0,50,0.00,,---,0.00,VWS V13.01,2013-10-16 18:09:00,
2013-10-16 14:14:00,66.0,46.9,0.00,SE,139,3.4,4.0,50,0.00,,---,0.00,VWS V13.01,2013-10-16 18:14:00,
2013-10-16 14:19:00,65.7,47.6,0.00,SSE,147,0.0,0.0,52,0.00,,---,0.00,VWS V13.01,2013-10-16 18:19:00,
2013-10-16 14:24:00,65.3,47.8,0.00,South,169,0.0,0.0,53,0.00,,---,0.00,VWS V13.01,2013-10-16 18:24:00,
2013-10-16 14:27:00,65.1,47.6,0.00,SE,136,0.0,0.0,53,0.00,,---,0.00,VWS V13.01,2013-10-16 18:27:00,
2013-10-16 14:32:00,64.4,47.4,0.00,SSE,152,0.0,0.0,54,0.00,,---,0.00,VWS V13.01,2013-10-16 18:32:00,
2013-10-16 14:37:00,64.2,47.7,0.00,SSE,151,0.0,0.0,55,0.00,,---,0.00,VWS V13.01,2013-10-16 18:37:00,
2013-10-16 14:42:00,64.0,48.5,0.00,SSE,151,0.0,0.0,57,0.00,,---,0.00,VWS V13.01,2013-10-16 18:42:00,
2013-10-16 14:47:00,63.7,48.6,0.00,SSE,151,0.0,0.0,58,0.00,,---,0.00,VWS V13.01,2013-10-16 18:47:00,
2013-10-16 14:52:00,63.3,49.2,0.00,SSE,151,0.0,0.0,60,0.00,,---,0.00,VWS V13.01,2013-10-16 18:52:00,
2013-10-16 14:57:00,62.4,50.1,0.00,SSE,168,0.0,0.0,64,0.00,,---,0.00,VWS V13.01,2013-10-16 18:57:00,
2013-10-16 15:02:00,62.1,50.6,0.00,SSE,168,0.0,0.0,66,0.00,,---,0.00,VWS V13.01,2013-10-16 19:02:00,
2013-10-16 15:07:00,61.9,51.2,0.00,SE,142,4.0,8.9,68,0.00,,---,0.00,VWS V13.01,2013-10-16 19:07:00,
2013-10-16 15:12:00,61.0,50.8,0.00,South,191,4.7,7.2,69,0.00,,---,0.00,VWS V13.01,2013-10-16 19:12:00,
2013-10-16 15:17:00,60.3,51.2,0.00,SE,144,6.0,11.3,72,0.00,,---,0.00,VWS V13.01,2013-10-16 19:17:00,
2013-10-16 15:22:00,60.1,51.8,0.00,South,187,0.0,7.2,74,0.00,,---,0.00,VWS V13.01,2013-10-16 19:22:00,
2013-10-16 15:27:00,59.9,52.0,0.00,South,181,6.0,7.2,75,0.00,,---,0.00,VWS V13.01,2013-10-16 19:27:00,
2013-10-16 15:32:00,59.7,52.2,0.00,SSE,154,0.0,10.5,76,0.00,,---,0.00,VWS V13.01,2013-10-16 19:32:00,
2013-10-16 15:37:00,59.7,52.5,0.00,SE,139,4.7,8.1,77,0.00,,---,0.00,VWS V13.01,2013-10-16 19:37:00,
2013-10-16 15:42:00,59.7,52.9,0.00,SSW,192,0.0,7.2,78,0.00,,---,0.00,VWS V13.01,2013-10-16 19:42:00,
2013-10-16 15:46:00,59.7,52.9,0.00,SSE,156,4.0,5.6,78,0.00,,---,0.00,VWS V13.01,2013-10-16 19:46:00,
2013-10-16 15:51:00,59.7,53.2,0.00,SSE,159,4.0,7.2,79,0.00,,---,0.00,VWS V13.01,2013-10-16 19:51:00,
2013-10-16 15:56:00,59.7,53.2,0.00,South,186,4.7,6.4,79,0.00,,---,0.00,VWS V13.01,2013-10-16 19:56:00,
2013-10-16 16:01:00,59.7,53.5,0.00,SSE,164,0.0,9.7,80,0.00,,---,0.00,VWS V13.01,2013-10-16 20:01:00,
2013-10-16 16:06:00,59.7,53.5,0.00,East,101,3.4,7.2,80,0.00,,---,0.00,VWS V13.01,2013-10-16 20:06:00,
2013-10-16 16:11:00,59.7,53.5,0.00,SSE,158,0.0,6.4,80,0.00,,---,0.00,VWS V13.01,2013-10-16 20:11:00,
2013-10-16 16:16:00,59.7,53.5,0.00,SSE,160,0.0,10.5,80,0.00,,---,0.00,VWS V13.01,2013-10-16 20:16:00,
2013-10-16 16:21:00,59.7,53.9,0.00,SSE,167,0.0,5.6,81,0.00,,---,0.00,VWS V13.01,2013-10-16 20:21:00,
2013-10-16 16:26:00,59.7,53.9,0.00,East,80,0.0,0.0,81,0.00,,---,0.00,VWS V13.01,2013-10-16 20:26:00,
2013-10-16 16:31:00,59.7,54.2,0.00,East,80,0.0,0.0,82,0.00,,---,0.00,VWS V13.01,2013-10-16 20:31:00,
2013-10-16 16:36:00,59.5,54.0,0.00,East,80,0.0,0.0,82,0.00,,---,0.00,VWS V13.01,2013-10-16 20:36:00,
2013-10-16 16:41:00,59.4,54.2,0.00,ENE,57,0.0,0.0,83,0.00,,---,0.00,VWS V13.01,2013-10-16 20:41:00,
2013-10-16 16:46:00,59.4,54.2,0.00,ENE,57,0.0,0.0,83,0.00,,---,0.00,VWS V13.01,2013-10-16 20:46:00,
2013-10-16 16:51:00,59.5,54.7,0.00,East,79,0.0,0.0,84,0.00,,---,0.00,VWS V13.01,2013-10-16 20:51:00,
2013-10-16 16:56:00,59.4,54.9,0.00,ESE,102,0.0,0.0,85,0.00,,---,0.00,VWS V13.01,2013-10-16 20:56:00,
2013-10-16 17:01:00,59.4,55.2,0.00,ESE,105,0.0,0.0,86,0.00,,---,0.00,VWS V13.01,2013-10-16 21:01:00,
2013-10-16 17:06:00,59.4,55.5,0.00,East,99,0.0,0.0,87,0.00,,---,0.00,VWS V13.01,2013-10-16 21:06:00,
2013-10-16 17:11:00,59.4,55.8,0.00,East,98,0.0,0.0,88,0.00,,---,0.00,VWS V13.01,2013-10-16 21:11:00,
2013-10-16 17:16:00,59.2,55.6,0.00,East,98,0.0,0.0,88,0.00,,---,0.00,VWS V13.01,2013-10-16 21:16:00,
2013-10-16 17:21:00,59.0,55.5,0.00,East,100,0.0,0.0,88,0.00,,---,0.00,VWS V13.01,2013-10-16 21:21:00,
2013-10-16 17:26:00,58.8,55.6,0.00,ESE,115,0.0,0.0,89,0.00,,---,0.00,VWS V13.01,2013-10-16 21:26:00,
2013-10-16 17:31:00,58.8,55.9,0.00,SSE,153,0.0,0.0,90,0.00,,---,0.00,VWS V13.01,2013-10-16 21:31:00,
2013-10-16 17:36:00,58.8,56.2,0.00,ESE,119,0.0,5.6,91,0.00,,---,0.00,VWS V13.01,2013-10-16 21:36:00,
2013-10-16 17:41:00,58.8,56.2,0.00,SSE,165,0.0,5.6,91,0.00,,---,0.00,VWS V13.01,2013-10-16 21:41:00,
2013-10-16 17:46:00,59.0,56.4,0.00,SSE,165,0.0,6.4,91,0.00,,---,0.00,VWS V13.01,2013-10-16 21:46:00,
2013-10-16 17:51:00,59.0,56.4,0.00,WSW,243,0.0,4.0,91,0.00,,---,0.00,VWS V13.01,2013-10-16 21:51:00,
2013-10-16 17:56:00,59.2,56.6,0.00,SE,141,0.0,4.8,91,0.00,,---,0.00,VWS V13.01,2013-10-16 21:56:00,
2013-10-16 18:01:00,59.0,56.4,0.00,SSE,159,0.0,0.0,91,0.00,,---,0.00,VWS V13.01,2013-10-16 22:01:00,
2013-10-16 18:06:00,59.0,56.7,0.00,ESE,123,0.0,0.0,92,0.00,,---,0.00,VWS V13.01,2013-10-16 22:06:00,
2013-10-16 18:11:00,59.0,56.7,0.00,SSE,152,0.0,0.0,92,0.00,,---,0.00,VWS V13.01,2013-10-16 22:11:00,
2013-10-16 18:16:00,58.6,56.6,0.00,East,99,0.0,0.0,93,0.00,,---,0.00,VWS V13.01,2013-10-16 22:16:00,
2013-10-16 18:21:00,58.3,56.3,0.00,East,100,0.0,0.0,93,0.00,,---,0.00,VWS V13.01,2013-10-16 22:21:00,
2013-10-16 18:26:00,57.7,55.7,0.00,SE,128,0.0,0.0,93,0.00,,---,0.00,VWS V13.01,2013-10-16 22:26:00,
2013-10-16 18:31:00,57.4,55.4,0.00,SSE,150,0.0,0.0,93,0.00,,---,0.00,VWS V13.01,2013-10-16 22:31:00,
2013-10-16 18:36:00,57.2,55.5,0.00,SSE,152,0.0,0.0,94,0.00,,---,0.00,VWS V13.01,2013-10-16 22:36:00,
2013-10-16 18:41:00,56.8,55.4,0.00,SSE,152,0.0,0.0,95,0.00,,---,0.00,VWS V13.01,2013-10-16 22:41:00,
2013-10-16 18:46:00,56.7,55.2,0.00,SSE,152,0.0,0.0,95,0.00,,---,0.00,VWS V13.01,2013-10-16 22:46:00,
2013-10-16 18:51:00,56.3,55.2,0.00,SSE,151,0.0,0.0,96,0.00,,---,0.00,VWS V13.01,2013-10-16 22:51:00,
2013-10-16 18:56:00,56.3,55.5,0.00,SSE,151,0.0,0.0,97,0.00,,---,0.00,VWS V13.01,2013-10-16 22:56:00,
2013-10-16 19:01:00,56.3,55.5,0.00,SE,138,0.0,0.0,97,0.00,,---,0.00,VWS V13.01,2013-10-16 23:01:00,
2013-10-16 19:06:00,55.9,55.4,0.00,SE,133,0.0,0.0,98,0.00,,---,0.00,VWS V13.01,2013-10-16 23:06:00,
2013-10-16 19:11:00,55.9,55.7,0.00,SSE,152,0.0,0.0,99,0.00,,---,0.00,VWS V13.01,2013-10-16 23:11:00,
2013-10-16 19:16:00,55.9,55.7,0.00,ESE,121,3.4,9.7,99,0.00,,---,0.00,VWS V13.01,2013-10-16 23:16:00,
2013-10-16 19:21:00,56.1,55.8,0.00,ESE,117,0.0,10.5,99,0.00,,---,0.00,VWS V13.01,2013-10-16 23:21:00,
2013-10-16 19:26:00,56.3,56.3,0.00,SE,139,6.0,8.9,100,0.00,,---,0.00,VWS V13.01,2013-10-16 23:26:00,
2013-10-16 19:31:00,56.1,56.1,0.00,SSW,196,0.0,6.4,100,0.00,,---,0.00,VWS V13.01,2013-10-16 23:31:00,
2013-10-16 19:36:00,56.5,56.5,0.00,SE,146,0.0,7.2,100,0.00,,---,0.00,VWS V13.01,2013-10-16 23:36:00,
2013-10-16 19:41:00,56.5,56.5,0.00,SSE,156,0.0,7.2,100,0.00,,---,0.00,VWS V13.01,2013-10-16 23:41:00,
2013-10-16 19:46:00,56.7,56.7,0.00,East,96,9.4,11.3,100,0.00,,---,0.00,VWS V13.01,2013-10-16 23:46:00,
2013-10-16 19:51:00,56.8,56.8,0.00,ESE,110,4.7,5.6,100,0.00,,---,0.00,VWS V13.01,2013-10-16 23:51:00,
2013-10-16 19:56:00,56.8,56.6,0.00,South,184,4.0,11.3,99,0.00,,---,0.00,VWS V13.01,2013-10-16 23:56:00,
2013-10-16 20:01:00,57.0,56.7,0.00,SE,128,5.4,10.5,99,0.00,,---,0.00,VWS V13.01,2013-10-17 00:01:00,
2013-10-16 20:06:00,57.2,56.9,0.00,SE,142,4.0,10.5,99,0.00,,---,0.00,VWS V13.01,2013-10-17 00:06:00,
2013-10-16 20:11:00,57.4,56.8,0.00,South,178,0.0,4.8,98,0.00,,---,0.00,VWS V13.01,2013-10-17 00:11:00,
2013-10-16 20:16:00,57.6,57.0,0.00,SW,229,0.0,0.0,98,0.00,,---,0.00,VWS V13.01,2013-10-17 00:16:00,
2013-10-16 20:21:00,57.7,57.2,0.00,SSE,164,0.0,6.4,98,0.00,,---,0.00,VWS V13.01,2013-10-17 00:21:00,
2013-10-16 20:26:00,57.9,57.1,0.00,SSE,150,0.0,5.6,97,0.00,,---,0.00,VWS V13.01,2013-10-17 00:26:00,
2013-10-16 20:31:00,57.9,57.1,0.00,SSE,151,0.0,0.0,97,0.00,,---,0.00,VWS V13.01,2013-10-17 00:31:00,
2013-10-16 20:36:00,57.9,56.8,0.00,SSE,151,0.0,0.0,96,0.00,,---,0.00,VWS V13.01,2013-10-17 00:36:00,
2013-10-16 20:41:00,57.9,56.8,0.00,SSE,151,0.0,0.0,96,0.00,,---,0.00,VWS V13.01,2013-10-17 00:41:00,
2013-10-16 20:46:00,57.9,56.8,0.00,SSE,151,0.0,0.0,96,0.00,,---,0.00,VWS V13.01,2013-10-17 00:46:00,
2013-10-16 20:51:00,57.9,56.8,0.00,SSE,151,0.0,0.0,96,0.00,,---,0.00,VWS V13.01,2013-10-17 00:51:00,
2013-10-16 20:56:00,57.9,56.8,0.00,SSE,150,0.0,0.0,96,0.00,,---,0.00,VWS V13.01,2013-10-17 00:56:00,
2013-10-16 21:01:00,57.9,56.8,0.00,SSE,150,0.0,0.0,96,0.00,,---,0.00,VWS V13.01,2013-10-17 01:01:00,
2013-10-16 21:06:00,57.9,56.8,0.00,SSE,150,0.0,0.0,96,0.00,,---,0.00,VWS V13.01,2013-10-17 01:06:00,
2013-10-16 21:11:00,57.9,56.8,0.00,SSE,160,0.0,0.0,96,0.00,,---,0.00,VWS V13.01,2013-10-17 01:11:00,
2013-10-16 21:16:00,58.3,57.2,0.00,SE,139,3.4,10.5,96,0.00,,---,0.00,VWS V13.01,2013-10-17 01:16:00,
2013-10-16 21:21:00,58.5,57.0,0.00,South,178,0.0,0.0,95,0.00,,---,0.00,VWS V13.01,2013-10-17 01:21:00,
2013-10-16 21:26:00,59.0,57.3,0.00,ESE,119,0.0,15.7,94,0.00,,---,0.00,VWS V13.01,2013-10-17 01:26:00,
2013-10-16 21:31:00,59.2,57.2,0.00,ESE,122,0.0,7.2,93,0.00,,---,0.00,VWS V13.01,2013-10-17 01:31:00,
2013-10-16 21:36:00,59.2,57.2,0.00,South,173,0.0,6.4,93,0.00,,---,0.00,VWS V13.01,2013-10-17 01:36:00,
2013-10-16 21:41:00,59.0,56.7,0.00,SSE,162,4.0,9.7,92,0.00,,---,0.00,VWS V13.01,2013-10-17 01:41:00,
2013-10-16 21:46:00,59.2,56.9,0.00,East,94,0.0,7.2,92,0.00,,---,0.00,VWS V13.01,2013-10-17 01:46:00,
2013-10-16 21:51:00,59.0,56.7,0.00,SW,229,0.0,6.4,92,0.00,,---,0.00,VWS V13.01,2013-10-17 01:51:00,
2013-10-16 21:56:00,58.8,56.8,0.00,SE,145,0.0,7.2,93,0.00,,---,0.00,VWS V13.01,2013-10-17 01:56:00,
2013-10-16 22:01:00,58.6,56.6,0.00,SSE,156,0.0,0.0,93,0.00,,---,0.00,VWS V13.01,2013-10-17 02:01:00,
2013-10-16 22:06:00,58.6,56.6,0.00,South,189,0.0,7.2,93,0.00,,---,0.00,VWS V13.01,2013-10-17 02:06:00,
2013-10-16 22:11:00,58.5,56.7,0.00,South,182,0.0,4.8,94,0.00,,---,0.00,VWS V13.01,2013-10-17 02:11:00,
2013-10-16 22:16:00,58.3,56.6,0.00,South,179,0.0,0.0,94,0.00,,---,0.00,VWS V13.01,2013-10-17 02:16:00,
2013-10-16 22:21:00,58.3,56.9,0.00,SSE,157,0.0,6.4,95,0.00,,---,0.00,VWS V13.01,2013-10-17 02:21:00,
2013-10-16 22:26:00,58.3,57.2,0.00,South,180,0.0,0.0,96,0.00,,---,0.00,VWS V13.01,2013-10-17 02:26:00,
2013-10-16 22:31:00,58.3,57.2,0.00,SE,125,0.0,0.0,96,0.00,,---,0.00,VWS V13.01,2013-10-17 02:31:00,
2013-10-16 22:36:00,58.1,57.3,0.00,SSE,151,0.0,0.0,97,0.00,,---,0.00,VWS V13.01,2013-10-17 02:36:00,
2013-10-16 22:41:00,58.1,57.5,0.00,SE,146,0.0,0.0,98,0.00,,---,0.00,VWS V13.01,2013-10-17 02:41:00,
2013-10-16 22:46:00,58.1,57.5,0.00,SE,138,0.0,4.8,98,0.00,,---,0.00,VWS V13.01,2013-10-17 02:46:00,
2013-10-16 22:51:00,58.1,57.8,0.00,SE,146,0.0,0.0,99,0.00,,---,0.00,VWS V13.01,2013-10-17 02:51:00,
2013-10-16 22:56:00,58.1,57.8,0.00,SW,219,0.0,0.0,99,0.00,,---,0.00,VWS V13.01,2013-10-17 02:56:00,
2013-10-16 23:01:00,58.1,58.1,0.00,SW,233,0.0,0.0,100,0.00,,---,0.00,VWS V13.01,2013-10-17 03:01:00,
2013-10-16 23:06:00,58.1,58.1,0.00,SW,233,0.0,0.0,100,0.00,,---,0.00,VWS V13.01,2013-10-17 03:06:00,
2013-10-16 23:11:00,58.1,58.1,0.00,SW,233,0.0,0.0,100,0.00,,---,0.00,VWS V13.01,2013-10-17 03:11:00,
2013-10-16 23:16:00,58.1,58.1,0.00,West,273,0.0,0.0,100,0.00,,---,0.00,VWS V13.01,2013-10-17 03:16:00,
2013-10-16 23:21:00,58.1,58.1,0.00,WSW,241,0.0,5.6,100,0.00,,---,0.00,VWS V13.01,2013-10-17 03:21:00,
2013-10-16 23:26:00,57.9,57.9,0.00,West,262,0.0,5.6,100,0.00,,---,0.00,VWS V13.01,2013-10-17 03:26:00,
2013-10-16 23:31:00,57.9,57.9,0.00,WNW,286,0.0,5.6,100,0.00,,---,0.00,VWS V13.01,2013-10-17 03:31:00,
2013-10-16 23:36:00,57.9,57.9,0.00,West,277,4.7,7.2,100,0.00,,---,0.00,VWS V13.01,2013-10-17 03:36:00,
2013-10-16 23:41:00,57.9,57.9,0.00,West,262,0.0,5.6,100,0.00,,---,0.00,VWS V13.01,2013-10-17 03:41:00,
2013-10-16 23:46:00,57.9,57.9,0.00,SW,219,0.0,0.0,100,0.00,,---,0.00,VWS V13.01,2013-10-17 03:46:00,
2013-10-16 23:51:00,57.9,57.9,0.00,West,263,5.4,6.4,100,0.00,,---,0.00,VWS V13.01,2013-10-17 03:51:00,
2013-10-16 23:56:00,57.9,57.9,0.00,West,265,0.0,4.8,100,0.00,,---,0.00,VWS V13.01,2013-10-17 03:56:00,